17J

Donalsonville Municipal Airport

Donalsonville, Georgia, USA
METAR K17J 181635Z AUTO 00000KT 10SM CLR 17/08 A3025 RMK AO2 T01740083
Observed Flight Rules
Nov-18 @ 16:35 UTC (21 minutes ago) Visual Flight Rules
Visibility Clouds
10 miles
  • Clear skies
Temperatures Readings
Current 17°C / 63°F
Dewpoint 8°C / 46°F
Humidity 56%
Altimeter 30.25" Hg
Pressure 1024 hPa
Elevation 45
METAR K17J 181635Z AUTO 00000KT 10SM CLR 17/08 A3025 RMK AO2 T01740083
Observed Flight Rules
Nov-18 @ 16:35 UTC
(21 minutes ago)
VFR
Clouds
  • Clear skies
Temperature Dewpoint
17°C / 63°F 8°C / 46°F
Humidity Altimeter Pressure
56% 30.25" Hg 1024 hPa